Time;durP1;ratioP1;P1;durP2;ratioP2;P2;SDS_P1;SDS_P2;PMS_P1;PMS_P2;Temp;Humidity;BMP_temperature;BMP_pressure;BME280_temperature;BME280_humidity;BME280_pressure;Samples;Min_cycle;Max_cycle;Signal;HPM_P1;HPM_P2
2021/11/30 00:00:56;;;;;;;5.67;5.03;;;;;;;5.99;62.07;100134.63;2106297;28;20174;-62
2021/11/30 00:01:57;;;;;;;6.10;5.40;;;;;;;5.97;61.69;100150.78;2105819;28;20532;-61
2021/11/30 00:02:58;;;;;;;6.37;5.27;;;;;;;6.02;62.03;100136.56;2106417;28;20182;-61
2021/11/30 00:03:59;;;;;;;6.20;5.53;;;;;;;6.00;62.54;100130.69;2106475;28;20174;-60
2021/11/30 00:04:59;;;;;;;5.77;5.10;;;;;;;6.08;62.14;100134.91;2106442;28;20613;-62
2021/11/30 00:06:00;;;;;;;5.40;4.77;;;;;;;6.08;61.79;100132.16;2106609;28;20236;-61
2021/11/30 00:07:01;;;;;;;5.93;5.33;;;;;;;6.06;62.12;100134.53;2106368;28;20568;-61
2021/11/30 00:08:03;;;;;;;5.67;4.80;;;;;;;6.11;62.23;100122.31;2106206;28;20413;-62
2021/11/30 00:11:04;;;;;;;5.57;4.90;;;;;;;6.17;62.43;100137.16;2106624;28;20154;-61
2021/11/30 00:11:58;;;;;;;6.72;4.53;;;;;;;6.20;62.83;100139.09;2102543;28;20192;-62
2021/11/30 00:12:58;;;;;;;5.70;4.43;;;;;;;6.26;62.55;100143.69;2106383;28;20685;-61
2021/11/30 00:13:59;;;;;;;5.83;4.20;;;;;;;6.25;62.63;100142.13;2106349;28;20656;-61
2021/11/30 00:14:59;;;;;;;5.60;4.47;;;;;;;6.26;62.92;100148.44;2106350;28;20480;-61
2021/11/30 00:16:00;;;;;;;4.83;3.90;;;;;;;6.29;63.40;100144.84;2106660;28;20189;-60
2021/11/30 00:17:02;;;;;;;5.57;4.13;;;;;;;6.34;62.43;100149.88;2106311;28;20181;-61
2021/11/30 00:18:02;;;;;;;4.65;4.10;;;;;;;6.22;62.77;100122.94;2106567;28;20582;-62
2021/11/30 00:19:03;;;;;;;4.57;4.00;;;;;;;6.41;63.37;100144.28;2106508;28;20220;-62
2021/11/30 00:20:04;;;;;;;4.70;4.00;;;;;;;6.44;62.98;100148.94;2106455;28;20279;-61
2021/11/30 00:21:07;;;;;;;4.75;4.25;;;;;;;6.47;63.33;100148.88;2105404;28;20182;-63
2021/11/30 00:22:10;;;;;;;5.15;4.30;;;;;;;6.54;62.85;100157.06;2106389;28;20181;-62
2021/11/30 00:23:13;;;;;;;6.43;4.60;;;;;;;6.51;62.71;100146.09;2106215;28;20567;-61
2021/11/30 00:24:13;;;;;;;5.05;4.55;;;;;;;6.60;62.39;100160.91;2106363;28;20209;-61
2021/11/30 00:25:14;;;;;;;6.67;4.67;;;;;;;5.91;62.61;100047.94;2106317;28;20689;-61
2021/11/30 00:26:14;;;;;;;5.50;4.33;;;;;;;5.98;62.04;100066.28;2106656;28;20175;-62
2021/11/30 00:27:15;;;;;;;5.03;4.50;;;;;;;6.48;62.94;100155.97;2103973;28;20178;-62
2021/11/30 00:28:15;;;;;;;5.83;4.37;;;;;;;6.49;62.94;100142.97;2089223;28;20708;-61
2021/11/30 00:29:16;;;;;;;5.83;4.60;;;;;;;6.44;62.13;100144.22;2089173;28;20183;-61
2021/11/30 00:30:16;;;;;;;5.43;4.43;;;;;;;6.48;62.18;100155.19;2098096;28;20170;-61
2021/11/30 00:31:17;;;;;;;6.17;5.20;;;;;;;6.54;62.75;100154.31;2097099;28;20655;-61
2021/11/30 00:32:18;;;;;;;5.00;4.43;;;;;;;6.57;62.41;100147.19;2098144;28;20504;-61
2021/11/30 00:33:19;;;;;;;5.17;4.53;;;;;;;6.24;62.35;100102.06;2097917;28;20667;-61
2021/11/30 00:34:20;;;;;;;5.25;4.47;;;;;;;6.52;62.56;100151.16;2097844;28;20172;-61
2021/11/30 00:35:23;;;;;;;5.53;4.90;;;;;;;6.58;62.49;100155.03;2097894;28;20218;-61
2021/11/30 00:36:24;;;;;;;5.90;4.78;;;;;;;6.62;62.16;100150.22;2097889;28;20585;-61
2021/11/30 00:37:24;;;;;;;6.80;5.00;;;;;;;6.67;61.84;100155.28;2097705;28;20175;-61
2021/11/30 00:38:26;;;;;;;7.07;4.73;;;;;;;6.65;61.13;100146.66;2097927;28;20174;-61
2021/11/30 00:39:27;;;;;;;5.70;5.10;;;;;;;6.70;61.25;100154.44;2097878;28;20178;-61
2021/11/30 00:40:28;;;;;;;5.43;4.80;;;;;;;6.56;62.03;100151.13;2097846;28;20207;-62
2021/11/30 00:41:29;;;;;;;7.18;5.32;;;;;;;6.47;62.32;100134.38;2096978;28;20187;-61
2021/11/30 00:42:30;;;;;;;6.00;4.90;;;;;;;6.64;62.17;100153.38;2098004;28;20254;-62
2021/11/30 00:43:35;;;;;;;6.50;5.10;;;;;;;6.59;61.83;100151.09;2097678;28;20649;-62
2021/11/30 00:44:37;;;;;;;5.85;5.05;;;;;;;6.61;62.34;100151.44;2097789;28;20159;-61
2021/11/30 00:45:50;;;;;;;5.90;5.22;;;;;;;6.64;62.29;100150.63;2088881;28;20238;-61
2021/11/30 00:46:54;;;;;;;6.00;5.07;;;;;;;6.69;62.78;100161.16;2090925;28;20609;-62
2021/11/30 00:47:58;;;;;;;5.72;5.10;;;;;;;6.75;62.89;100164.19;2098034;28;20306;-61
2021/11/30 00:49:00;;;;;;;6.15;5.38;;;;;;;6.67;62.56;100143.50;2097903;28;20244;-61
2021/11/30 00:50:04;;;;;;;5.57;4.97;;;;;;;6.80;62.18;100169.22;2097862;28;20171;-62
2021/11/30 00:51:10;;;;;;;6.60;5.53;;;;;;;6.87;61.83;100167.16;2096868;28;20181;-61
2021/11/30 00:52:11;;;;;;;6.47;5.55;;;;;;;6.87;62.90;100172.66;2098035;28;20220;-61
2021/11/30 00:53:12;;;;;;;6.00;5.20;;;;;;;6.83;62.52;100162.91;2088863;28;20179;-61
2021/11/30 00:54:15;;;;;;;6.05;5.45;;;;;;;6.88;62.26;100162.44;2089030;28;20628;-61
2021/11/30 00:55:16;;;;;;;6.63;5.90;;;;;;;6.89;62.07;100166.72;2097501;28;20178;-61
2021/11/30 00:56:17;;;;;;;6.73;5.73;;;;;;;6.91;62.47;100170.63;2097900;28;20669;-61
2021/11/30 00:57:19;;;;;;;7.72;5.90;;;;;;;6.95;62.46;100165.84;2097554;28;20249;-61
2021/11/30 00:58:20;;;;;;;5.93;5.28;;;;;;;6.99;61.91;100169.31;2097410;28;20198;-61
2021/11/30 00:59:26;;;;;;;6.07;5.47;;;;;;;7.00;62.52;100170.09;2105053;28;20233;-62
2021/11/30 01:00:27;;;;;;;7.38;6.10;;;;;;;7.00;61.75;100162.63;2106153;28;20173;-61
2021/11/30 01:01:30;;;;;;;6.47;5.77;;;;;;;7.01;62.13;100166.13;2105323;28;20656;-61
2021/11/30 01:02:31;;;;;;;7.07;6.20;;;;;;;6.74;62.23;100138.66;2106094;28;20179;-61
2021/11/30 01:03:32;;;;;;;7.87;6.93;;;;;;;6.70;62.92;100157.19;2106198;28;20175;-61
2021/11/30 01:04:33;;;;;;;7.30;6.57;;;;;;;6.62;62.67;100163.22;2105937;28;20563;-61
2021/11/30 01:05:36;;;;;;;7.50;6.70;;;;;;;6.54;63.49;100159.81;2105865;28;20175;-61
2021/11/30 01:06:37;;;;;;;8.25;6.50;;;;;;;6.55;63.50;100180.63;2106158;28;20173;-62
2021/11/30 01:07:38;;;;;;;7.75;6.95;;;;;;;6.17;64.22;100101.41;2106159;28;20531;-61
2021/11/30 01:08:38;;;;;;;7.60;6.63;;;;;;;6.51;63.27;100157.13;2106130;28;20204;-60
2021/11/30 01:09:40;;;;;;;7.13;6.43;;;;;;;6.43;63.33;100150.16;2106201;28;20651;-61
2021/11/30 01:10:41;;;;;;;6.78;5.70;;;;;;;6.24;62.01;100142.56;2096999;28;20179;-61
2021/11/30 01:11:42;;;;;;;6.47;5.70;;;;;;;6.36;62.11;100151.03;2096246;28;20176;-61
2021/11/30 01:12:43;;;;;;;6.47;5.40;;;;;;;6.19;61.26;100160.31;2106154;28;20297;-61
2021/11/30 01:13:44;;;;;;;7.57;5.30;;;;;;;4.96;60.36;99978.88;2106034;28;20179;-61
2021/11/30 01:14:45;;;;;;;6.90;6.00;;;;;;;6.13;61.09;100145.47;2106094;28;20208;-61
2021/11/30 01:15:46;;;;;;;7.23;5.90;;;;;;;6.08;61.94;100151.41;2105853;28;20188;-61
2021/11/30 01:16:47;;;;;;;7.70;5.82;;;;;;;6.06;61.61;100151.03;2106203;28;20195;-62
2021/11/30 01:17:48;;;;;;;6.53;5.37;;;;;;;5.75;61.52;100119.19;2106052;28;20666;-62
2021/11/30 01:18:49;;;;;;;7.20;6.07;;;;;;;5.94;61.21;100151.59;2106081;28;20204;-61
2021/11/30 01:19:49;;;;;;;7.03;6.03;;;;;;;5.47;61.42;100094.81;2105673;28;20694;-60
2021/11/30 01:20:52;;;;;;;6.40;5.37;;;;;;;5.89;60.91;100162.28;2106010;28;20258;-61
2021/11/30 01:21:53;;;;;;;7.03;6.28;;;;;;;5.85;60.96;100164.31;2104971;28;20219;-61
2021/11/30 01:22:54;;;;;;;6.82;5.93;;;;;;;5.79;60.86;100169.44;2106105;28;20221;-61
2021/11/30 01:23:55;;;;;;;6.78;6.05;;;;;;;5.77;60.38;100160.03;2105915;28;20254;-61
2021/11/30 01:24:55;;;;;;;8.80;6.63;;;;;;;5.76;60.35;100177.72;2105988;28;20179;-61
2021/11/30 01:26:00;;;;;;;7.97;6.53;;;;;;;5.76;60.85;100166.72;2105682;28;20178;-61
2021/11/30 01:27:00;;;;;;;7.68;6.40;;;;;;;5.73;60.23;100168.31;2105552;28;20200;-61
2021/11/30 01:28:02;;;;;;;8.13;7.17;;;;;;;5.68;61.75;100174.28;2097770;28;20231;-61
2021/11/30 01:29:04;;;;;;;8.75;7.20;;;;;;;5.53;61.02;100152.88;2097387;28;20674;-61
2021/11/30 01:30:07;;;;;;;8.40;6.68;;;;;;;5.64;61.35;100172.75;2097705;28;20293;-61
2021/11/30 01:31:08;;;;;;;8.07;6.90;;;;;;;5.61;61.90;100179.06;2096573;28;20177;-61
2021/11/30 01:32:08;;;;;;;7.47;6.60;;;;;;;5.61;62.50;100171.63;2097704;28;20186;-62
2021/11/30 01:33:09;;;;;;;9.90;6.90;;;;;;;5.62;61.31;100175.13;2097550;28;20213;-61
2021/11/30 01:34:09;;;;;;;7.67;6.87;;;;;;;5.65;61.28;100175.06;2097598;28;20170;-61
2021/11/30 01:35:11;;;;;;;9.17;7.33;;;;;;;5.57;62.33;100176.38;2097591;28;20177;-61
2021/11/30 01:36:12;;;;;;;7.32;5.55;;;;;;;5.58;61.31;100177.13;2097469;28;20178;-62
2021/11/30 01:37:15;;;;;;;8.10;6.77;;;;;;;4.62;61.73;100016.50;2097562;28;20173;-61
2021/11/30 01:38:15;;;;;;;9.30;7.70;;;;;;;5.53;61.65;100161.13;2097681;28;20548;-61
2021/11/30 01:39:16;;;;;;;8.03;7.07;;;;;;;5.31;61.23;100124.84;2088643;28;20209;-61
2021/11/30 01:40:21;;;;;;;8.33;7.17;;;;;;;5.66;61.65;100171.16;2088738;28;20227;-61
2021/11/30 01:41:22;;;;;;;7.40;6.15;;;;;;;5.55;61.86;100173.22;2096649;28;20793;-61
2021/11/30 01:42:23;;;;;;;9.15;7.57;;;;;;;5.53;61.90;100169.34;2097593;28;20258;-61
2021/11/30 01:43:25;;;;;;;8.82;7.15;;;;;;;5.48;62.28;100162.31;2097625;28;20650;-61
2021/11/30 01:49:55;;;;;;;9.98;7.80;;;;;;;5.41;61.61;100175.34;2088121;28;20191;-62
2021/11/30 01:50:39;;;;;;;8.35;7.35;;;;;;;5.42;62.69;100172.19;2086641;28;20249;-61
2021/11/30 01:51:39;;;;;;;10.02;6.82;;;;;;;5.32;62.87;100147.56;2096570;28;20790;-61
2021/11/30 01:52:40;;;;;;;8.30;6.80;;;;;;;5.15;62.80;100124.59;2097514;28;20730;-61
2021/11/30 01:53:41;;;;;;;8.23;7.00;;;;;;;5.50;62.06;100172.91;2097549;28;20175;-62
2021/11/30 01:54:43;;;;;;;8.27;6.97;;;;;;;5.48;61.97;100178.03;2097271;28;20731;-61
2021/11/30 01:55:45;;;;;;;8.63;7.10;;;;;;;5.31;62.26;100146.00;2097291;28;20181;-61
2021/11/30 01:56:45;;;;;;;8.32;7.10;;;;;;;5.41;61.80;100170.66;2097479;28;20175;-61
2021/11/30 01:57:47;;;;;;;9.43;7.90;;;;;;;4.42;61.89;100004.53;2097369;28;20168;-61
2021/11/30 01:58:48;;;;;;;9.05;7.90;;;;;;;5.42;61.55;100169.47;2100067;28;20551;-61
2021/11/30 01:59:51;;;;;;;9.35;7.78;;;;;;;5.36;61.79;100156.56;2105782;28;20266;-61
2021/11/30 02:00:51;;;;;;;8.70;7.22;;;;;;;5.44;61.53;100188.28;2096799;28;20212;-61
2021/11/30 02:01:52;;;;;;;9.97;8.43;;;;;;;5.34;61.96;100165.22;2095880;28;20177;-61
2021/11/30 02:02:53;;;;;;;8.77;7.70;;;;;;;4.40;61.76;100029.63;2105795;28;20694;-61
2021/11/30 02:03:53;;;;;;;11.03;8.33;;;;;;;5.31;62.20;100168.00;2105866;28;20174;-61
2021/11/30 02:04:54;;;;;;;9.60;8.00;;;;;;;5.33;61.84;100182.13;2105708;28;20173;-61
2021/11/30 02:05:54;;;;;;;9.33;7.73;;;;;;;5.12;61.48;100144.63;2105637;28;20263;-61
2021/11/30 02:06:56;;;;;;;8.63;7.37;;;;;;;5.27;61.53;100179.03;2105733;28;20628;-60
2021/11/30 02:07:56;;;;;;;9.80;8.27;;;;;;;5.26;61.60;100182.97;2105792;28;20582;-62
2021/11/30 02:08:57;;;;;;;10.87;8.87;;;;;;;5.24;61.85;100163.34;2105685;28;20204;-61
2021/11/30 02:09:58;;;;;;;8.87;7.80;;;;;;;5.24;61.54;100168.84;2105788;28;20180;-61
2021/11/30 02:10:58;;;;;;;10.00;8.57;;;;;;;4.61;61.90;100078.81;2105646;28;20212;-62
2021/11/30 02:11:59;;;;;;;10.07;8.47;;;;;;;5.26;61.93;100173.94;2105259;28;20181;-61
2021/11/30 02:13:00;;;;;;;11.23;8.40;;;;;;;5.27;61.46;100170.00;2105806;28;20205;-61
2021/11/30 02:14:01;;;;;;;9.47;8.47;;;;;;;5.24;62.21;100170.81;2105861;28;20708;-62
2021/11/30 02:15:04;;;;;;;10.52;8.75;;;;;;;5.26;62.52;100174.72;2105449;28;20198;-61
2021/11/30 02:16:07;;;;;;;10.07;8.48;;;;;;;4.24;61.89;100020.34;2105664;28;20174;-61
2021/11/30 02:17:08;;;;;;;9.38;8.32;;;;;;;4.34;61.91;100027.72;2105566;28;20173;-61
2021/11/30 02:18:13;;;;;;;10.27;8.45;;;;;;;5.27;62.21;100170.00;2105835;28;20181;-61
2021/11/30 02:19:14;;;;;;;10.63;7.30;;;;;;;5.31;60.96;100168.00;2105727;28;20258;-62
2021/11/30 02:20:14;;;;;;;10.83;8.17;;;;;;;4.21;61.24;100000.00;2105781;28;20238;-61
2021/11/30 02:21:17;;;;;;;10.03;7.87;;;;;;;5.18;62.02;100158.72;2095567;28;20179;-61
2021/11/30 02:22:18;;;;;;;11.00;8.65;;;;;;;4.61;62.78;100054.13;2092347;28;20170;-61
2021/11/30 02:24:38;;;;;;;9.25;7.53;;;;;;;5.37;62.33;100161.66;2097521;28;20546;-61
2021/11/30 02:25:38;;;;;;;9.32;7.90;;;;;;;5.38;62.15;100163.22;2097202;28;20173;-61
2021/11/30 02:26:40;;;;;;;8.37;7.57;;;;;;;5.40;61.67;100174.59;2097061;28;20176;-61
2021/11/30 02:27:41;;;;;;;9.98;7.85;;;;;;;5.42;61.77;100177.69;2094092;28;20181;-61
2021/11/30 02:28:45;;;;;;;10.30;8.00;;;;;;;5.48;61.69;100176.06;2096651;28;20216;-61
2021/11/30 02:29:46;;;;;;;10.57;8.32;;;;;;;5.11;61.77;100109.34;2105714;28;20198;-61
2021/11/30 02:30:47;;;;;;;8.73;7.25;;;;;;;5.48;61.78;100162.31;2105725;28;20179;-61
2021/11/30 02:31:48;;;;;;;9.73;7.77;;;;;;;5.61;61.03;100179.06;2105111;28;20250;-61
2021/11/30 02:32:49;;;;;;;9.00;7.07;;;;;;;5.59;60.39;100178.72;2107386;28;20231;-61
2021/11/30 02:33:50;;;;;;;8.97;7.37;;;;;;;5.60;60.27;100181.03;2107332;28;20258;-61
2021/11/30 02:34:51;;;;;;;8.50;7.18;;;;;;;5.59;60.03;100178.72;2107352;28;20224;-61
2021/11/30 02:35:52;;;;;;;8.73;7.23;;;;;;;5.53;60.20;100180.34;2107180;28;20166;-61
2021/11/30 02:37:04;;;;;;;8.43;7.50;;;;;;;5.53;60.77;100178.38;2106936;28;20187;-61
2021/11/30 02:38:08;;;;;;;9.10;8.02;;;;;;;5.54;60.11;100171.66;2107358;28;20197;-61
2021/11/30 02:39:16;;;;;;;8.70;7.15;;;;;;;5.42;60.44;100183.19;2107291;28;20248;-61
2021/11/30 02:40:17;;;;;;;8.73;7.70;;;;;;;4.63;60.34;100054.50;2107441;28;20197;-61
2021/11/30 02:41:19;;;;;;;8.80;7.37;;;;;;;5.33;60.61;100176.63;2097225;28;20479;-61
2021/11/30 02:42:19;;;;;;;10.25;8.38;;;;;;;5.38;60.59;100173.44;2098346;28;20415;-61
2021/11/30 02:43:20;;;;;;;9.40;8.30;;;;;;;5.36;60.68;100175.78;2107220;28;20205;-61
2021/11/30 02:44:22;;;;;;;9.70;8.37;;;;;;;5.31;60.01;100188.03;2107294;28;20180;-61
2021/11/30 02:45:23;;;;;;;9.15;7.57;;;;;;;5.28;60.65;100169.59;2107097;28;20187;-61
2021/11/30 02:46:32;;;;;;;10.67;8.53;;;;;;;5.31;60.92;100182.53;2107226;28;20210;-61
2021/11/30 02:47:33;;;;;;;9.95;7.72;;;;;;;5.34;60.83;100170.69;2107230;28;20181;-62
2021/11/30 02:48:33;;;;;;;10.63;8.37;;;;;;;5.34;61.02;100195.44;2107206;28;20265;-61
2021/11/30 02:49:37;;;;;;;10.13;8.50;;;;;;;5.35;60.67;100180.53;2107263;28;20255;-62
2021/11/30 02:50:42;;;;;;;10.07;8.85;;;;;;;4.39;60.93;100030.00;2107233;28;20168;-61
2021/11/30 02:51:47;;;;;;;10.43;8.90;;;;;;;5.34;61.57;100178.19;2106281;28;20646;-61
2021/11/30 02:52:47;;;;;;;12.13;8.85;;;;;;;5.35;60.75;100177.00;2107200;28;20174;-61
2021/11/30 02:53:48;;;;;;;10.37;8.20;;;;;;;5.36;60.75;100179.34;2107216;28;20170;-61
2021/11/30 02:54:54;;;;;;;10.53;8.97;;;;;;;5.39;60.64;100175.75;2107253;28;20188;-62
2021/11/30 02:55:55;;;;;;;9.05;7.28;;;;;;;5.45;59.88;100181.59;2107038;28;20199;-62
2021/11/30 02:56:58;;;;;;;10.67;8.83;;;;;;;5.40;60.69;100173.78;2106946;28;20259;-61
2021/11/30 02:57:59;;;;;;;10.35;8.23;;;;;;;5.43;60.04;100186.72;2107116;28;20648;-62
2021/11/30 02:58:59;;;;;;;7.87;6.47;;;;;;;5.39;59.67;100180.50;2106584;28;20638;-61
2021/11/30 03:00:00;;;;;;;10.50;7.97;;;;;;;5.37;59.85;100174.59;2098083;28;20206;-61
2021/11/30 03:01:03;;;;;;;12.77;8.67;;;;;;;5.33;60.13;100182.88;2097671;28;20178;-61
2021/11/30 03:02:11;;;;;;;9.32;7.30;;;;;;;5.15;60.31;100152.06;2107045;28;20798;-61
2021/11/30 03:03:13;;;;;;;8.43;7.18;;;;;;;5.39;59.87;100181.25;2107126;28;20426;-61
2021/11/30 03:04:14;;;;;;;10.93;8.52;;;;;;;5.39;59.81;100188.72;2107242;28;20203;-62
2021/11/30 03:05:14;;;;;;;10.20;8.80;;;;;;;5.38;59.97;100182.44;2107113;28;20208;-61
2021/11/30 03:06:15;;;;;;;10.00;8.30;;;;;;;5.40;59.79;100176.53;2106990;28;20197;-61
2021/11/30 03:07:19;;;;;;;11.53;8.33;;;;;;;5.39;59.50;100185.97;2106740;28;20645;-61
2021/11/30 03:08:20;;;;;;;10.05;8.23;;;;;;;5.37;59.62;100182.84;2107137;28;20182;-61
2021/11/30 03:09:21;;;;;;;11.40;8.60;;;;;;;4.10;60.54;99988.34;2097946;28;20185;-60
2021/11/30 03:10:21;;;;;;;11.33;8.33;;;;;;;5.16;59.26;100150.09;2098185;28;20170;-61
2021/11/30 03:11:22;;;;;;;9.90;8.63;;;;;;;5.28;60.22;100182.56;2106255;28;20174;-61
2021/11/30 03:12:23;;;;;;;11.50;9.23;;;;;;;5.29;60.79;100182.13;2106997;28;20219;-61
2021/11/30 03:13:24;;;;;;;12.35;9.23;;;;;;;5.29;60.82;100184.13;2107003;28;20579;-61
2021/11/30 03:14:27;;;;;;;10.70;9.03;;;;;;;5.28;60.31;100199.03;2107008;28;20178;-62
2021/11/30 03:15:28;;;;;;;9.98;8.63;;;;;;;5.30;61.03;100189.22;2107262;28;20176;-61
2021/11/30 03:16:29;;;;;;;10.10;8.27;;;;;;;5.04;59.65;100170.63;2106874;28;20181;-62
2021/11/30 03:17:30;;;;;;;11.90;9.32;;;;;;;5.31;60.19;100193.50;2106766;28;20200;-61
2021/11/30 03:18:34;;;;;;;12.47;9.20;;;;;;;5.26;60.40;100196.69;2106960;28;20658;-62
2021/11/30 03:19:34;;;;;;;11.50;8.88;;;;;;;5.31;60.62;100199.00;2106878;28;20226;-61
2021/11/30 03:20:35;;;;;;;10.73;8.87;;;;;;;5.24;60.38;100201.81;2107005;28;20234;-61
2021/11/30 03:21:36;;;;;;;9.93;8.33;;;;;;;4.43;60.03;100049.97;2106006;28;20216;-62
2021/11/30 03:22:38;;;;;;;10.20;8.37;;;;;;;5.31;60.20;100200.97;2106884;28;20172;-61
2021/11/30 03:23:41;;;;;;;10.88;8.75;;;;;;;5.30;60.24;100227.66;2106938;28;20288;-61
2021/11/30 03:24:42;;;;;;;9.88;7.60;;;;;;;4.65;60.06;100107.03;2106985;28;20259;-61
2021/11/30 03:25:43;;;;;;;10.57;8.00;;;;;;;5.17;60.25;100193.63;2106973;28;20177;-60
2021/11/30 03:26:44;;;;;;;10.57;8.68;;;;;;;5.16;60.72;100199.53;2106530;28;20209;-61
2021/11/30 03:27:47;;;;;;;13.25;8.30;;;;;;;5.16;60.93;100205.03;2106540;28;20163;-61
2021/11/30 03:28:48;;;;;;;9.68;8.32;;;;;;;5.18;60.57;100197.19;2106780;28;20172;-61
2021/11/30 03:29:49;;;;;;;9.23;7.27;;;;;;;5.18;59.99;100200.69;2106899;28;20172;-61
2021/11/30 03:30:57;;;;;;;10.70;8.80;;;;;;;5.14;60.54;100212.91;2106889;28;20169;-61
2021/11/30 03:32:08;;;;;;;13.35;8.50;;;;;;;5.10;60.35;100210.19;2105964;28;20225;-61
2021/11/30 03:34:28;;;;;;;11.75;8.75;;;;;;;5.06;60.26;100208.63;2107003;28;20192;-62
2021/11/30 03:35:28;;;;;;;11.87;8.73;;;;;;;5.05;61.22;100205.13;2106917;28;20176;-62
2021/11/30 03:36:30;;;;;;;10.30;8.93;;;;;;;5.03;61.12;100199.25;2106640;28;20641;-61
2021/11/30 03:37:31;;;;;;;11.35;9.10;;;;;;;5.06;61.58;100212.19;2106600;28;20183;-61
2021/11/30 03:38:32;;;;;;;11.55;9.02;;;;;;;4.61;60.81;100130.19;2106732;28;20184;-61
2021/11/30 03:39:33;;;;;;;11.80;9.03;;;;;;;5.16;60.84;100218.75;2106696;28;20177;-61
2021/11/30 03:40:33;;;;;;;10.77;8.68;;;;;;;5.15;60.77;100215.25;2106842;28;20252;-61
2021/11/30 03:41:34;;;;;;;12.30;9.37;;;;;;;5.16;60.28;100219.53;2106049;28;20207;-61
2021/11/30 03:42:35;;;;;;;9.60;8.20;;;;;;;5.07;60.61;100213.72;2106603;28;20197;-61
2021/11/30 03:43:35;;;;;;;10.83;8.60;;;;;;;5.05;60.02;100213.38;2106722;28;20197;-61
2021/11/30 03:44:36;;;;;;;11.30;9.20;;;;;;;4.98;60.55;100196.94;2106862;28;20164;-61
2021/11/30 03:45:37;;;;;;;12.37;8.80;;;;;;;5.03;60.64;100215.72;2106810;28;20583;-61
2021/11/30 03:46:37;;;;;;;9.77;7.83;;;;;;;5.02;60.68;100233.38;2106589;28;20180;-61
2021/11/30 03:47:38;;;;;;;13.00;8.93;;;;;;;5.01;60.27;100226.34;2097535;28;20244;-61
2021/11/30 03:48:38;;;;;;;11.37;9.20;;;;;;;5.01;61.01;100218.09;2097696;28;20181;-61
2021/11/30 03:49:39;;;;;;;10.53;8.50;;;;;;;5.04;61.15;100214.56;2106819;28;20354;-61
2021/11/30 03:50:39;;;;;;;10.93;8.87;;;;;;;5.04;60.37;100225.53;2106734;28;20652;-61
2021/11/30 03:51:41;;;;;;;14.03;9.53;;;;;;;4.98;60.94;100243.59;2105937;28;20252;-61
2021/11/30 03:52:41;;;;;;;12.63;9.63;;;;;;;4.77;60.86;100210.81;2106773;28;20178;-61
2021/11/30 03:53:42;;;;;;;12.27;9.57;;;;;;;4.92;60.90;100225.25;2106636;28;20651;-61
2021/11/30 03:54:43;;;;;;;11.80;9.27;;;;;;;4.78;61.08;100226.09;2106593;28;20180;-61
2021/11/30 03:55:43;;;;;;;12.90;9.70;;;;;;;4.84;61.41;100227.25;2106606;28;20182;-61
2021/11/30 03:56:44;;;;;;;11.07;9.33;;;;;;;4.89;61.63;100228.78;2106501;28;20269;-61
2021/11/30 03:57:45;;;;;;;11.10;9.47;;;;;;;4.42;61.61;100172.63;2106354;28;20240;-61
2021/11/30 03:58:45;;;;;;;11.43;8.70;;;;;;;4.89;61.30;100243.31;2103907;28;20221;-61
2021/11/30 03:59:46;;;;;;;11.90;9.60;;;;;;;4.92;61.57;100241.72;2098254;28;20194;-61
2021/11/30 04:00:46;;;;;;;10.13;8.07;;;;;;;4.89;61.07;100240.56;2098305;28;20219;-62
2021/11/30 04:01:47;;;;;;;12.63;8.63;;;;;;;4.78;60.83;100226.09;2097337;28;20177;-62
2021/11/30 04:02:48;;;;;;;10.03;7.87;;;;;;;4.89;60.66;100229.56;2098157;28;20181;-62
2021/11/30 04:03:49;;;;;;;10.13;8.63;;;;;;;4.96;61.14;100239.69;2098205;28;20233;-61
2021/11/30 04:04:50;;;;;;;12.32;8.98;;;;;;;4.28;61.67;100125.31;2098277;28;20425;-62
2021/11/30 04:05:50;;;;;;;11.03;8.20;;;;;;;5.05;60.72;100246.31;2098271;28;20182;-61
2021/11/30 04:06:54;;;;;;;11.33;8.63;;;;;;;4.64;60.50;100215.25;2098065;28;20193;-62
2021/11/30 04:07:55;;;;;;;10.00;8.32;;;;;;;4.98;61.22;100240.09;2097996;28;20565;-61
2021/11/30 04:08:55;;;;;;;10.97;8.33;;;;;;;4.99;60.53;100244.41;2098151;28;20178;-62
2021/11/30 04:09:56;;;;;;;10.97;8.60;;;;;;;4.94;61.01;100247.56;2098154;28;20686;-62
2021/11/30 04:10:56;;;;;;;9.97;7.90;;;;;;;4.94;60.51;100250.31;2098253;28;20647;-61
2021/11/30 04:11:57;;;;;;;9.87;8.13;;;;;;;5.02;60.47;100277.31;2097280;28;20212;-62
2021/11/30 04:12:57;;;;;;;10.13;8.20;;;;;;;5.02;60.56;100246.34;2098195;28;20183;-61
2021/11/30 04:13:58;;;;;;;10.63;7.30;;;;;;;5.01;60.36;100253.00;2098158;28;20182;-61
2021/11/30 04:14:59;;;;;;;10.43;8.27;;;;;;;4.48;60.73;100162.03;2089234;28;20233;-62
2021/11/30 04:16:00;;;;;;;11.00;8.23;;;;;;;5.01;60.26;100253.00;2089387;28;20264;-62
2021/11/30 04:17:00;;;;;;;11.03;8.90;;;;;;;5.03;60.93;100256.16;2097793;28;20211;-60
2021/11/30 04:18:01;;;;;;;9.67;8.20;;;;;;;4.90;60.40;100239.38;2098008;28;20542;-61
2021/11/30 04:19:02;;;;;;;9.10;7.87;;;;;;;4.98;59.28;100238.13;2097958;28;20176;-61
2021/11/30 04:20:02;;;;;;;11.33;8.20;;;;;;;5.12;59.98;100270.22;2098143;28;20263;-62
2021/11/30 04:21:03;;;;;;;9.53;8.30;;;;;;;5.09;60.53;100280.03;2088386;28;20661;-61
2021/11/30 04:22:04;;;;;;;10.83;8.63;;;;;;;5.10;60.24;100253.34;2091845;28;20664;-61
2021/11/30 04:23:04;;;;;;;11.47;8.27;;;;;;;5.13;60.96;100264.28;2106487;28;20174;-61
2021/11/30 04:24:05;;;;;;;12.17;8.60;;;;;;;4.37;61.34;100148.38;2106433;28;20447;-61
2021/11/30 04:25:08;;;;;;;10.47;8.77;;;;;;;4.85;61.74;100228.03;2106329;28;20196;-61
2021/11/30 04:26:08;;;;;;;10.77;9.07;;;;;;;5.18;61.85;100271.34;2106567;28;20182;-61
2021/11/30 04:27:09;;;;;;;11.80;8.47;;;;;;;4.88;61.98;100227.22;2104624;28;20183;-61
2021/11/30 04:28:09;;;;;;;11.40;9.60;;;;;;;5.09;61.51;100266.31;2097858;28;20179;-61
2021/11/30 04:29:10;;;;;;;10.43;9.33;;;;;;;5.13;61.73;100266.28;2097752;28;20182;-61
2021/11/30 04:30:11;;;;;;;10.07;8.57;;;;;;;5.13;61.89;100260.78;2098175;28;20197;-61
2021/11/30 04:31:13;;;;;;;12.55;10.15;;;;;;;5.12;62.54;100268.22;2096938;28;20196;-62
2021/11/30 04:32:13;;;;;;;13.13;9.40;;;;;;;4.38;61.73;100160.94;2098133;28;20192;-62
2021/11/30 04:33:14;;;;;;;14.00;9.60;;;;;;;4.91;61.78;100257.41;2098027;28;20190;-61
2021/11/30 04:34:16;;;;;;;11.97;9.73;;;;;;;5.01;61.73;100267.53;2098056;28;20649;-61
2021/11/30 04:35:16;;;;;;;12.77;9.45;;;;;;;3.96;61.49;100111.03;2097928;28;20177;-61
2021/11/30 04:36:17;;;;;;;11.67;9.33;;;;;;;5.00;62.06;100257.72;2098111;28;20186;-62
2021/11/30 04:37:18;;;;;;;12.60;10.00;;;;;;;4.89;61.60;100270.75;2097603;28;20190;-61
2021/11/30 04:38:19;;;;;;;11.02;9.35;;;;;;;4.90;62.04;100274.28;2097741;28;20204;-61
2021/11/30 04:39:19;;;;;;;11.57;9.50;;;;;;;4.95;61.81;100271.09;2097798;28;20203;-61
2021/11/30 04:40:20;;;;;;;11.60;9.53;;;;;;;4.93;61.85;100265.25;2097947;28;20224;-62
2021/11/30 04:41:21;;;;;;;12.40;9.80;;;;;;;4.18;62.44;100159.06;2096984;28;20639;-62
2021/11/30 04:42:25;;;;;;;13.40;10.07;;;;;;;4.88;62.00;100271.91;2098033;28;20181;-62
2021/11/30 04:43:34;;;;;;;14.80;9.43;;;;;;;4.83;62.49;100271.59;2097891;28;20176;-62
2021/11/30 04:44:37;;;;;;;11.82;9.88;;;;;;;4.24;62.58;100193.13;2097968;28;20242;-61
2021/11/30 04:46:13;;;;;;;13.20;9.77;;;;;;;4.75;62.28;100275.53;2097835;28;20201;-61
2021/11/30 04:47:10;;;;;;;11.75;9.50;;;;;;;4.71;61.78;100278.31;2098800;28;20218;-61
2021/11/30 04:48:13;;;;;;;12.35;8.90;;;;;;;4.77;62.16;100281.44;2106244;28;20263;-61
2021/11/30 04:49:33;;;;;;;12.15;9.88;;;;;;;4.69;61.54;100280.69;2105870;28;20566;-62
2021/11/30 04:50:37;;;;;;;12.10;9.85;;;;;;;4.67;62.02;100302.25;2106286;28;20157;-61
2021/11/30 04:51:37;;;;;;;13.30;9.95;;;;;;;4.50;62.38;100272.16;2105286;28;20229;-61
2021/11/30 04:52:40;;;;;;;12.97;10.40;;;;;;;3.72;62.72;100148.34;2106247;28;20171;-61
2021/11/30 04:53:43;;;;;;;12.73;10.15;;;;;;;3.73;62.34;100152.63;2106230;28;20538;-62
2021/11/30 04:54:44;;;;;;;12.18;10.32;;;;;;;4.09;62.38;100203.38;2105551;28;20606;-61
2021/11/30 04:55:44;;;;;;;11.83;9.77;;;;;;;4.70;62.53;100306.16;2106224;28;20195;-61
2021/11/30 04:56:45;;;;;;;12.37;10.30;;;;;;;4.74;62.06;100307.72;2106285;28;20175;-61
2021/11/30 04:57:46;;;;;;;12.03;9.93;;;;;;;4.76;62.89;100315.53;2105915;28;20655;-60
2021/11/30 04:58:47;;;;;;;13.53;10.07;;;;;;;4.70;61.31;100295.97;2105799;28;20175;-61